sensor_id;sensor_type;location;lat;lon;timestamp;temperature;humidity
14682;DHT22;7429;52.498;13.480;2024-03-02T00:02:24;8.10;99.90
14682;DHT22;7429;52.498;13.480;2024-03-02T00:05:27;8.10;99.90
14682;DHT22;7429;52.498;13.480;2024-03-02T00:08:30;8.10;99.90
14682;DHT22;7429;52.498;13.480;2024-03-02T00:11:35;8.10;99.90
14682;DHT22;7429;52.498;13.480;2024-03-02T00:14:40;8.20;99.90
14682;DHT22;7429;52.498;13.480;2024-03-02T00:17:43;8.20;99.90
14682;DHT22;7429;52.498;13.480;2024-03-02T00:20:47;8.20;99.90
14682;DHT22;7429;52.498;13.480;2024-03-02T00:23:50;8.20;99.90
14682;DHT22;7429;52.498;13.480;2024-03-02T00:26:54;8.20;99.90
14682;DHT22;7429;52.498;13.480;2024-03-02T00:30:00;8.30;99.90
14682;DHT22;7429;52.498;13.480;2024-03-02T00:33:06;8.20;99.90
14682;DHT22;7429;52.498;13.480;2024-03-02T00:36:11;8.20;99.90
14682;DHT22;7429;52.498;13.480;2024-03-02T00:39:16;8.20;99.90
14682;DHT22;7429;52.498;13.480;2024-03-02T00:42:20;8.20;99.90
14682;DHT22;7429;52.498;13.480;2024-03-02T00:45:26;8.20;99.90
14682;DHT22;7429;52.498;13.480;2024-03-02T00:48:30;8.10;99.90
14682;DHT22;7429;52.498;13.480;2024-03-02T00:51:37;8.10;99.90
14682;DHT22;7429;52.498;13.480;2024-03-02T00:54:43;8.20;99.90
14682;DHT22;7429;52.498;13.480;2024-03-02T00:57:47;8.20;99.90
14682;DHT22;7429;52.498;13.480;2024-03-02T01:00:51;8.20;99.90
14682;DHT22;7429;52.498;13.480;2024-03-02T01:03:55;8.30;99.90
14682;DHT22;7429;52.498;13.480;2024-03-02T01:06:59;8.30;99.90
14682;DHT22;7429;52.498;13.480;2024-03-02T01:10:03;8.30;99.90
14682;DHT22;7429;52.498;13.480;2024-03-02T01:13:06;8.30;99.90
14682;DHT22;7429;52.498;13.480;2024-03-02T01:16:11;8.30;99.90
14682;DHT22;7429;52.498;13.480;2024-03-02T01:19:14;8.30;99.90
14682;DHT22;7429;52.498;13.480;2024-03-02T01:22:17;8.30;99.90
14682;DHT22;7429;52.498;13.480;2024-03-02T01:25:27;8.30;99.90
14682;DHT22;7429;52.498;13.480;2024-03-02T01:28:30;8.40;99.90
14682;DHT22;7429;52.498;13.480;2024-03-02T01:31:35;8.40;99.90
14682;DHT22;7429;52.498;13.480;2024-03-02T01:34:38;8.40;99.90
14682;DHT22;7429;52.498;13.480;2024-03-02T01:37:42;8.50;99.90
14682;DHT22;7429;52.498;13.480;2024-03-02T01:40:45;8.40;99.90
14682;DHT22;7429;52.498;13.480;2024-03-02T01:43:48;8.50;99.90
14682;DHT22;7429;52.498;13.480;2024-03-02T01:46:53;8.40;99.90
14682;DHT22;7429;52.498;13.480;2024-03-02T01:49:56;8.50;99.90
14682;DHT22;7429;52.498;13.480;2024-03-02T01:53:00;8.40;99.90
14682;DHT22;7429;52.498;13.480;2024-03-02T01:56:05;8.40;99.90
14682;DHT22;7429;52.498;13.480;2024-03-02T01:59:08;8.50;99.90
14682;DHT22;7429;52.498;13.480;2024-03-02T02:02:13;8.50;99.90
14682;DHT22;7429;52.498;13.480;2024-03-02T02:05:16;8.60;99.90
14682;DHT22;7429;52.498;13.480;2024-03-02T02:08:20;8.50;99.90
14682;DHT22;7429;52.498;13.480;2024-03-02T02:11:23;8.60;99.90
14682;DHT22;7429;52.498;13.480;2024-03-02T02:14:28;8.60;99.90
14682;DHT22;7429;52.498;13.480;2024-03-02T02:17:32;8.60;99.90
14682;DHT22;7429;52.498;13.480;2024-03-02T02:20:35;8.60;99.90
14682;DHT22;7429;52.498;13.480;2024-03-02T02:23:40;8.60;99.90
14682;DHT22;7429;52.498;13.480;2024-03-02T02:26:48;8.60;99.90
14682;DHT22;7429;52.498;13.480;2024-03-02T02:29:51;8.60;99.90
14682;DHT22;7429;52.498;13.480;2024-03-02T02:32:55;8.60;99.90
14682;DHT22;7429;52.498;13.480;2024-03-02T02:35:59;8.60;99.90
14682;DHT22;7429;52.498;13.480;2024-03-02T02:39:04;8.60;99.90
14682;DHT22;7429;52.498;13.480;2024-03-02T02:42:08;8.50;99.90
14682;DHT22;7429;52.498;13.480;2024-03-02T02:45:12;8.50;99.90
14682;DHT22;7429;52.498;13.480;2024-03-02T02:48:17;8.50;99.90
14682;DHT22;7429;52.498;13.480;2024-03-02T02:51:20;8.50;99.90
14682;DHT22;7429;52.498;13.480;2024-03-02T02:54:25;8.50;99.90
14682;DHT22;7429;52.498;13.480;2024-03-02T02:57:28;8.50;99.90
14682;DHT22;7429;52.498;13.480;2024-03-02T03:00:33;8.50;99.90
14682;DHT22;7429;52.498;13.480;2024-03-02T03:03:38;8.50;99.90
14682;DHT22;7429;52.498;13.480;2024-03-02T03:06:42;8.50;99.90
14682;DHT22;7429;52.498;13.480;2024-03-02T03:09:47;8.50;99.90
14682;DHT22;7429;52.498;13.480;2024-03-02T03:12:51;8.50;99.90
14682;DHT22;7429;52.498;13.480;2024-03-02T03:15:55;8.50;99.90
14682;DHT22;7429;52.498;13.480;2024-03-02T03:18:58;8.50;99.90
14682;DHT22;7429;52.498;13.480;2024-03-02T03:22:01;8.50;99.90
14682;DHT22;7429;52.498;13.480;2024-03-02T03:25:07;8.60;99.90
14682;DHT22;7429;52.498;13.480;2024-03-02T03:28:11;8.60;99.90
14682;DHT22;7429;52.498;13.480;2024-03-02T03:31:14;8.70;99.90
14682;DHT22;7429;52.498;13.480;2024-03-02T03:34:17;8.70;99.90
14682;DHT22;7429;52.498;13.480;2024-03-02T03:37:20;8.70;99.90
14682;DHT22;7429;52.498;13.480;2024-03-02T03:40:24;8.70;99.90
14682;DHT22;7429;52.498;13.480;2024-03-02T03:43:28;8.70;99.90
14682;DHT22;7429;52.498;13.480;2024-03-02T03:46:31;8.80;99.90
14682;DHT22;7429;52.498;13.480;2024-03-02T03:49:34;8.80;99.90
14682;DHT22;7429;52.498;13.480;2024-03-02T03:52:38;8.80;99.90
14682;DHT22;7429;52.498;13.480;2024-03-02T03:55:42;8.80;99.90
14682;DHT22;7429;52.498;13.480;2024-03-02T03:58:48;8.80;99.90
14682;DHT22;7429;52.498;13.480;2024-03-02T04:01:51;8.80;99.90
14682;DHT22;7429;52.498;13.480;2024-03-02T04:04:55;8.80;99.90
14682;DHT22;7429;52.498;13.480;2024-03-02T04:07:59;8.80;99.90
14682;DHT22;7429;52.498;13.480;2024-03-02T04:11:04;8.80;99.90
14682;DHT22;7429;52.498;13.480;2024-03-02T04:14:08;8.90;99.90
14682;DHT22;7429;52.498;13.480;2024-03-02T04:17:12;8.80;99.90
14682;DHT22;7429;52.498;13.480;2024-03-02T04:20:15;8.80;99.90
14682;DHT22;7429;52.498;13.480;2024-03-02T04:23:18;8.80;99.90
14682;DHT22;7429;52.498;13.480;2024-03-02T04:26:24;8.80;99.90
14682;DHT22;7429;52.498;13.480;2024-03-02T04:29:27;8.80;99.90
14682;DHT22;7429;52.498;13.480;2024-03-02T04:32:31;8.80;99.90
14682;DHT22;7429;52.498;13.480;2024-03-02T04:35:34;8.80;99.90
14682;DHT22;7429;52.498;13.480;2024-03-02T04:38:38;8.90;99.90
14682;DHT22;7429;52.498;13.480;2024-03-02T04:41:43;8.80;99.90
14682;DHT22;7429;52.498;13.480;2024-03-02T04:44:49;8.80;99.90
14682;DHT22;7429;52.498;13.480;2024-03-02T04:47:52;8.80;99.90
14682;DHT22;7429;52.498;13.480;2024-03-02T04:50:55;8.80;99.90
14682;DHT22;7429;52.498;13.480;2024-03-02T04:53:59;8.80;99.90
14682;DHT22;7429;52.498;13.480;2024-03-02T04:57:04;8.90;99.90
14682;DHT22;7429;52.498;13.480;2024-03-02T05:00:08;8.90;99.90
14682;DHT22;7429;52.498;13.480;2024-03-02T05:03:14;9.00;99.90
14682;DHT22;7429;52.498;13.480;2024-03-02T05:06:17;9.00;99.90
14682;DHT22;7429;52.498;13.480;2024-03-02T05:09:21;9.00;99.90
14682;DHT22;7429;52.498;13.480;2024-03-02T05:12:25;9.00;99.90
14682;DHT22;7429;52.498;13.480;2024-03-02T05:15:58;9.10;99.90
14682;DHT22;7429;52.498;13.480;2024-03-02T05:19:01;9.10;99.90
14682;DHT22;7429;52.498;13.480;2024-03-02T05:22:05;9.10;99.90
14682;DHT22;7429;52.498;13.480;2024-03-02T05:25:08;9.10;99.90
14682;DHT22;7429;52.498;13.480;2024-03-02T05:28:14;9.10;99.90
14682;DHT22;7429;52.498;13.480;2024-03-02T05:31:17;9.10;99.90
14682;DHT22;7429;52.498;13.480;2024-03-02T05:34:20;9.10;99.90
14682;DHT22;7429;52.498;13.480;2024-03-02T05:37:24;9.10;99.90
14682;DHT22;7429;52.498;13.480;2024-03-02T05:40:27;9.10;99.90
14682;DHT22;7429;52.498;13.480;2024-03-02T05:43:32;9.10;99.90
14682;DHT22;7429;52.498;13.480;2024-03-02T05:46:35;9.10;99.90
14682;DHT22;7429;52.498;13.480;2024-03-02T05:49:41;9.10;99.90
14682;DHT22;7429;52.498;13.480;2024-03-02T05:52:45;9.10;99.90
14682;DHT22;7429;52.498;13.480;2024-03-02T05:55:49;9.10;99.90
14682;DHT22;7429;52.498;13.480;2024-03-02T05:58:56;9.10;99.90
14682;DHT22;7429;52.498;13.480;2024-03-02T06:02:10;9.10;99.90
14682;DHT22;7429;52.498;13.480;2024-03-02T06:05:13;9.10;99.90
14682;DHT22;7429;52.498;13.480;2024-03-02T06:08:17;9.10;99.90
14682;DHT22;7429;52.498;13.480;2024-03-02T06:11:20;9.10;99.90
14682;DHT22;7429;52.498;13.480;2024-03-02T06:14:25;9.00;99.90
14682;DHT22;7429;52.498;13.480;2024-03-02T06:17:28;9.00;99.90
14682;DHT22;7429;52.498;13.480;2024-03-02T06:20:34;9.10;99.90
14682;DHT22;7429;52.498;13.480;2024-03-02T06:23:39;9.10;99.90
14682;DHT22;7429;52.498;13.480;2024-03-02T06:26:42;9.10;99.90
14682;DHT22;7429;52.498;13.480;2024-03-02T06:29:46;9.10;99.90
14682;DHT22;7429;52.498;13.480;2024-03-02T06:32:50;9.10;99.90
14682;DHT22;7429;52.498;13.480;2024-03-02T06:35:53;9.10;99.90
14682;DHT22;7429;52.498;13.480;2024-03-02T06:38:56;9.20;99.90
14682;DHT22;7429;52.498;13.480;2024-03-02T06:42:00;9.20;99.90
14682;DHT22;7429;52.498;13.480;2024-03-02T06:45:05;9.20;99.90
14682;DHT22;7429;52.498;13.480;2024-03-02T06:48:09;9.10;99.90
14682;DHT22;7429;52.498;13.480;2024-03-02T06:51:12;9.10;99.90
14682;DHT22;7429;52.498;13.480;2024-03-02T06:54:17;9.10;99.90
14682;DHT22;7429;52.498;13.480;2024-03-02T06:57:20;9.10;99.90
14682;DHT22;7429;52.498;13.480;2024-03-02T07:00:24;9.10;99.90
14682;DHT22;7429;52.498;13.480;2024-03-02T07:03:28;9.10;99.90
14682;DHT22;7429;52.498;13.480;2024-03-02T07:06:31;9.10;99.90
14682;DHT22;7429;52.498;13.480;2024-03-02T07:09:34;9.00;99.90
14682;DHT22;7429;52.498;13.480;2024-03-02T07:12:38;9.00;99.90
14682;DHT22;7429;52.498;13.480;2024-03-02T07:15:42;9.00;99.90
14682;DHT22;7429;52.498;13.480;2024-03-02T07:19:13;9.10;99.90
14682;DHT22;7429;52.498;13.480;2024-03-02T07:22:16;9.00;99.90
14682;DHT22;7429;52.498;13.480;2024-03-02T07:25:20;9.10;99.90
14682;DHT22;7429;52.498;13.480;2024-03-02T07:28:27;9.10;99.90
14682;DHT22;7429;52.498;13.480;2024-03-02T07:31:32;9.10;99.90
14682;DHT22;7429;52.498;13.480;2024-03-02T07:34:36;9.10;99.90
14682;DHT22;7429;52.498;13.480;2024-03-02T07:37:39;9.00;99.90
14682;DHT22;7429;52.498;13.480;2024-03-02T07:40:44;9.00;99.90
14682;DHT22;7429;52.498;13.480;2024-03-02T07:43:47;9.10;99.90
14682;DHT22;7429;52.498;13.480;2024-03-02T07:46:51;9.10;99.90
14682;DHT22;7429;52.498;13.480;2024-03-02T07:49:54;9.10;99.90
14682;DHT22;7429;52.498;13.480;2024-03-02T07:52:57;9.10;99.90
14682;DHT22;7429;52.498;13.480;2024-03-02T07:56:01;9.10;99.90
14682;DHT22;7429;52.498;13.480;2024-03-02T07:59:05;9.10;99.90
14682;DHT22;7429;52.498;13.480;2024-03-02T08:02:11;9.10;99.90
14682;DHT22;7429;52.498;13.480;2024-03-02T08:05:15;9.10;99.90
14682;DHT22;7429;52.498;13.480;2024-03-02T08:08:19;9.10;99.90
14682;DHT22;7429;52.498;13.480;2024-03-02T08:11:22;9.10;99.90
14682;DHT22;7429;52.498;13.480;2024-03-02T08:14:25;9.20;99.90
14682;DHT22;7429;52.498;13.480;2024-03-02T08:17:30;9.20;99.90
14682;DHT22;7429;52.498;13.480;2024-03-02T08:20:36;9.20;99.90
14682;DHT22;7429;52.498;13.480;2024-03-02T08:23:41;9.20;99.90
14682;DHT22;7429;52.498;13.480;2024-03-02T08:26:46;9.10;99.90
14682;DHT22;7429;52.498;13.480;2024-03-02T08:29:49;9.20;99.90
14682;DHT22;7429;52.498;13.480;2024-03-02T08:32:53;9.20;99.90
14682;DHT22;7429;52.498;13.480;2024-03-02T08:35:56;9.10;99.90
14682;DHT22;7429;52.498;13.480;2024-03-02T08:38:59;9.20;99.90
14682;DHT22;7429;52.498;13.480;2024-03-02T08:42:04;9.20;99.90
14682;DHT22;7429;52.498;13.480;2024-03-02T08:45:08;9.20;99.90
14682;DHT22;7429;52.498;13.480;2024-03-02T08:48:13;9.30;99.90
14682;DHT22;7429;52.498;13.480;2024-03-02T08:51:16;9.40;99.90
14682;DHT22;7429;52.498;13.480;2024-03-02T08:54:19;9.40;99.90
14682;DHT22;7429;52.498;13.480;2024-03-02T08:57:22;9.50;99.90
14682;DHT22;7429;52.498;13.480;2024-03-02T09:00:25;9.40;99.90
14682;DHT22;7429;52.498;13.480;2024-03-02T09:03:30;9.50;99.90
14682;DHT22;7429;52.498;13.480;2024-03-02T09:06:35;9.50;99.90
14682;DHT22;7429;52.498;13.480;2024-03-02T09:09:38;9.50;99.90
14682;DHT22;7429;52.498;13.480;2024-03-02T09:12:43;9.50;99.90
14682;DHT22;7429;52.498;13.480;2024-03-02T09:15:46;9.50;99.90
14682;DHT22;7429;52.498;13.480;2024-03-02T09:18:51;9.60;99.90
14682;DHT22;7429;52.498;13.480;2024-03-02T09:21:54;9.60;99.90
14682;DHT22;7429;52.498;13.480;2024-03-02T09:25:00;9.60;99.90
14682;DHT22;7429;52.498;13.480;2024-03-02T09:28:04;9.60;99.90
14682;DHT22;7429;52.498;13.480;2024-03-02T09:31:08;9.70;99.90
14682;DHT22;7429;52.498;13.480;2024-03-02T09:34:13;9.80;99.90
14682;DHT22;7429;52.498;13.480;2024-03-02T09:37:18;9.80;99.90
14682;DHT22;7429;52.498;13.480;2024-03-02T09:40:22;9.90;99.90
14682;DHT22;7429;52.498;13.480;2024-03-02T09:43:25;10.00;99.90
14682;DHT22;7429;52.498;13.480;2024-03-02T09:46:29;10.10;99.90
14682;DHT22;7429;52.498;13.480;2024-03-02T09:49:34;10.10;99.90
14682;DHT22;7429;52.498;13.480;2024-03-02T09:52:42;10.20;99.90
14682;DHT22;7429;52.498;13.480;2024-03-02T09:55:46;10.30;99.90
14682;DHT22;7429;52.498;13.480;2024-03-02T09:58:49;10.30;99.90
14682;DHT22;7429;52.498;13.480;2024-03-02T10:01:58;10.30;99.90
14682;DHT22;7429;52.498;13.480;2024-03-02T10:05:03;10.50;99.90
14682;DHT22;7429;52.498;13.480;2024-03-02T10:08:06;10.50;99.90
14682;DHT22;7429;52.498;13.480;2024-03-02T10:11:10;10.50;99.90
14682;DHT22;7429;52.498;13.480;2024-03-02T10:14:14;10.60;99.90
14682;DHT22;7429;52.498;13.480;2024-03-02T10:17:17;10.60;99.90
14682;DHT22;7429;52.498;13.480;2024-03-02T10:20:23;10.70;99.90
14682;DHT22;7429;52.498;13.480;2024-03-02T10:23:27;10.80;99.90
14682;DHT22;7429;52.498;13.480;2024-03-02T10:26:30;10.90;99.90
14682;DHT22;7429;52.498;13.480;2024-03-02T10:29:33;11.00;99.90
14682;DHT22;7429;52.498;13.480;2024-03-02T10:32:36;11.10;99.90
14682;DHT22;7429;52.498;13.480;2024-03-02T10:35:42;11.10;99.90
14682;DHT22;7429;52.498;13.480;2024-03-02T10:38:47;11.10;99.90
14682;DHT22;7429;52.498;13.480;2024-03-02T10:41:52;11.00;99.90
14682;DHT22;7429;52.498;13.480;2024-03-02T10:44:55;11.10;99.90
14682;DHT22;7429;52.498;13.480;2024-03-02T10:48:00;11.10;99.90
14682;DHT22;7429;52.498;13.480;2024-03-02T10:51:08;11.30;99.90
14682;DHT22;7429;52.498;13.480;2024-03-02T10:54:12;11.30;99.90
14682;DHT22;7429;52.498;13.480;2024-03-02T10:57:17;11.40;99.90
14682;DHT22;7429;52.498;13.480;2024-03-02T11:00:25;11.50;99.90
14682;DHT22;7429;52.498;13.480;2024-03-02T11:03:36;11.50;99.90
14682;DHT22;7429;52.498;13.480;2024-03-02T11:06:43;11.60;99.90
14682;DHT22;7429;52.498;13.480;2024-03-02T11:10:01;11.70;99.90
14682;DHT22;7429;52.498;13.480;2024-03-02T11:13:12;11.90;99.90
14682;DHT22;7429;52.498;13.480;2024-03-02T11:16:23;11.90;99.90
14682;DHT22;7429;52.498;13.480;2024-03-02T11:19:33;11.90;99.90
14682;DHT22;7429;52.498;13.480;2024-03-02T11:22:40;12.00;99.90
14682;DHT22;7429;52.498;13.480;2024-03-02T11:25:43;12.10;99.90
14682;DHT22;7429;52.498;13.480;2024-03-02T11:28:46;12.20;99.90
14682;DHT22;7429;52.498;13.480;2024-03-02T11:32:00;12.30;99.90
14682;DHT22;7429;52.498;13.480;2024-03-02T11:35:04;12.40;99.90
14682;DHT22;7429;52.498;13.480;2024-03-02T11:38:10;12.40;99.90
14682;DHT22;7429;52.498;13.480;2024-03-02T11:41:14;12.40;99.90
14682;DHT22;7429;52.498;13.480;2024-03-02T11:44:17;12.50;99.90
14682;DHT22;7429;52.498;13.480;2024-03-02T11:47:21;12.50;99.90
14682;DHT22;7429;52.498;13.480;2024-03-02T11:50:29;12.60;99.90
14682;DHT22;7429;52.498;13.480;2024-03-02T11:53:35;12.70;99.90
14682;DHT22;7429;52.498;13.480;2024-03-02T11:56:42;12.80;99.90
14682;DHT22;7429;52.498;13.480;2024-03-02T11:59:46;12.70;99.90
14682;DHT22;7429;52.498;13.480;2024-03-02T12:03:00;12.80;99.90
14682;DHT22;7429;52.498;13.480;2024-03-02T12:06:05;12.90;99.90
14682;DHT22;7429;52.498;13.480;2024-03-02T12:09:10;12.90;99.90
14682;DHT22;7429;52.498;13.480;2024-03-02T12:12:14;13.10;99.90
14682;DHT22;7429;52.498;13.480;2024-03-02T12:15:23;13.30;99.90
14682;DHT22;7429;52.498;13.480;2024-03-02T12:18:28;13.40;99.90
14682;DHT22;7429;52.498;13.480;2024-03-02T12:21:31;13.70;99.90
14682;DHT22;7429;52.498;13.480;2024-03-02T12:24:35;13.90;99.90
14682;DHT22;7429;52.498;13.480;2024-03-02T12:27:40;14.00;99.90
14682;DHT22;7429;52.498;13.480;2024-03-02T12:30:43;14.10;99.90
14682;DHT22;7429;52.498;13.480;2024-03-02T12:33:47;14.30;99.90
14682;DHT22;7429;52.498;13.480;2024-03-02T12:36:50;14.40;99.90
14682;DHT22;7429;52.498;13.480;2024-03-02T12:39:56;14.50;99.90
14682;DHT22;7429;52.498;13.480;2024-03-02T12:43:00;14.60;99.90
14682;DHT22;7429;52.498;13.480;2024-03-02T12:46:04;14.70;99.90
14682;DHT22;7429;52.498;13.480;2024-03-02T12:49:08;14.70;99.90
14682;DHT22;7429;52.498;13.480;2024-03-02T12:52:13;14.70;99.90
14682;DHT22;7429;52.498;13.480;2024-03-02T12:55:20;14.70;99.90
14682;DHT22;7429;52.498;13.480;2024-03-02T12:58:23;14.90;99.90
14682;DHT22;7429;52.498;13.480;2024-03-02T13:01:28;15.00;99.90
14682;DHT22;7429;52.498;13.480;2024-03-02T13:04:32;15.00;99.90
14682;DHT22;7429;52.498;13.480;2024-03-02T13:07:35;15.00;99.90
14682;DHT22;7429;52.498;13.480;2024-03-02T13:10:40;14.90;99.90
14682;DHT22;7429;52.498;13.480;2024-03-02T13:13:43;14.90;99.90
14682;DHT22;7429;52.498;13.480;2024-03-02T13:16:47;14.90;99.90
14682;DHT22;7429;52.498;13.480;2024-03-02T13:19:53;15.00;99.90
14682;DHT22;7429;52.498;13.480;2024-03-02T13:22:57;15.20;99.90
14682;DHT22;7429;52.498;13.480;2024-03-02T13:26:02;15.40;99.90
14682;DHT22;7429;52.498;13.480;2024-03-02T13:29:06;15.40;99.90
14682;DHT22;7429;52.498;13.480;2024-03-02T13:32:10;15.50;99.90
14682;DHT22;7429;52.498;13.480;2024-03-02T13:35:13;15.70;99.90
14682;DHT22;7429;52.498;13.480;2024-03-02T13:38:16;15.50;99.90
14682;DHT22;7429;52.498;13.480;2024-03-02T13:41:21;15.70;99.90
14682;DHT22;7429;52.498;13.480;2024-03-02T13:44:25;15.70;99.90
14682;DHT22;7429;52.498;13.480;2024-03-02T13:47:29;15.80;99.90
14682;DHT22;7429;52.498;13.480;2024-03-02T13:50:32;15.80;99.90
14682;DHT22;7429;52.498;13.480;2024-03-02T13:53:39;15.80;99.90
14682;DHT22;7429;52.498;13.480;2024-03-02T13:56:44;15.80;99.90
14682;DHT22;7429;52.498;13.480;2024-03-02T13:59:48;15.80;99.90
14682;DHT22;7429;52.498;13.480;2024-03-02T14:02:52;16.10;99.90
14682;DHT22;7429;52.498;13.480;2024-03-02T14:05:55;16.20;99.90
14682;DHT22;7429;52.498;13.480;2024-03-02T14:08:59;16.20;99.90
14682;DHT22;7429;52.498;13.480;2024-03-02T14:12:04;16.20;99.90
14682;DHT22;7429;52.498;13.480;2024-03-02T14:15:09;16.20;99.90
14682;DHT22;7429;52.498;13.480;2024-03-02T14:18:12;16.10;99.90
14682;DHT22;7429;52.498;13.480;2024-03-02T14:21:15;15.90;99.90
14682;DHT22;7429;52.498;13.480;2024-03-02T14:24:19;15.80;99.90
14682;DHT22;7429;52.498;13.480;2024-03-02T14:27:27;16.00;99.90
14682;DHT22;7429;52.498;13.480;2024-03-02T14:30:50;16.10;99.90
14682;DHT22;7429;52.498;13.480;2024-03-02T14:33:54;16.00;99.90
14682;DHT22;7429;52.498;13.480;2024-03-02T14:36:57;15.90;99.90
14682;DHT22;7429;52.498;13.480;2024-03-02T14:40:00;15.90;99.90
14682;DHT22;7429;52.498;13.480;2024-03-02T14:43:06;15.90;99.90
14682;DHT22;7429;52.498;13.480;2024-03-02T14:46:09;15.80;99.90
14682;DHT22;7429;52.498;13.480;2024-03-02T14:49:13;15.80;99.90
14682;DHT22;7429;52.498;13.480;2024-03-02T14:52:16;15.80;99.90
14682;DHT22;7429;52.498;13.480;2024-03-02T14:55:20;15.60;99.90
14682;DHT22;7429;52.498;13.480;2024-03-02T14:58:25;15.40;99.90
14682;DHT22;7429;52.498;13.480;2024-03-02T15:01:29;15.30;99.90
14682;DHT22;7429;52.498;13.480;2024-03-02T15:04:32;15.40;99.90
14682;DHT22;7429;52.498;13.480;2024-03-02T15:07:36;15.40;99.90
14682;DHT22;7429;52.498;13.480;2024-03-02T15:10:40;15.30;99.90
14682;DHT22;7429;52.498;13.480;2024-03-02T15:13:48;15.20;99.90
14682;DHT22;7429;52.498;13.480;2024-03-02T15:16:51;15.20;99.90
14682;DHT22;7429;52.498;13.480;2024-03-02T15:19:55;15.20;99.90
14682;DHT22;7429;52.498;13.480;2024-03-02T15:22:58;15.10;99.90
14682;DHT22;7429;52.498;13.480;2024-03-02T15:26:01;14.90;99.90
14682;DHT22;7429;52.498;13.480;2024-03-02T15:29:06;14.60;99.90
14682;DHT22;7429;52.498;13.480;2024-03-02T15:32:09;14.20;99.90
14682;DHT22;7429;52.498;13.480;2024-03-02T15:35:12;13.90;99.90
14682;DHT22;7429;52.498;13.480;2024-03-02T15:38:16;13.80;99.90
14682;DHT22;7429;52.498;13.480;2024-03-02T15:41:33;13.70;99.90
14682;DHT22;7429;52.498;13.480;2024-03-02T15:44:38;13.70;99.90
14682;DHT22;7429;52.498;13.480;2024-03-02T15:47:46;13.60;99.90
14682;DHT22;7429;52.498;13.480;2024-03-02T15:50:49;13.50;99.90
14682;DHT22;7429;52.498;13.480;2024-03-02T15:53:57;13.50;99.90
14682;DHT22;7429;52.498;13.480;2024-03-02T15:57:00;13.40;99.90
14682;DHT22;7429;52.498;13.480;2024-03-02T16:00:06;13.30;99.90
14682;DHT22;7429;52.498;13.480;2024-03-02T16:03:13;13.20;99.90
14682;DHT22;7429;52.498;13.480;2024-03-02T16:06:16;13.20;99.90
14682;DHT22;7429;52.498;13.480;2024-03-02T16:09:19;13.10;99.90
14682;DHT22;7429;52.498;13.480;2024-03-02T16:12:23;13.00;99.90
14682;DHT22;7429;52.498;13.480;2024-03-02T16:15:30;13.00;99.90
14682;DHT22;7429;52.498;13.480;2024-03-02T16:18:33;13.00;99.90
14682;DHT22;7429;52.498;13.480;2024-03-02T16:21:37;13.00;99.90
14682;DHT22;7429;52.498;13.480;2024-03-02T16:24:40;12.90;99.90
14682;DHT22;7429;52.498;13.480;2024-03-02T16:27:44;12.90;99.90
14682;DHT22;7429;52.498;13.480;2024-03-02T16:30:50;12.90;99.90
14682;DHT22;7429;52.498;13.480;2024-03-02T16:33:55;12.80;99.90
14682;DHT22;7429;52.498;13.480;2024-03-02T16:36:58;12.80;99.90
14682;DHT22;7429;52.498;13.480;2024-03-02T16:40:02;12.70;99.90
14682;DHT22;7429;52.498;13.480;2024-03-02T16:43:07;12.70;99.90
14682;DHT22;7429;52.498;13.480;2024-03-02T16:46:11;12.60;99.90
14682;DHT22;7429;52.498;13.480;2024-03-02T16:49:15;12.50;99.90
14682;DHT22;7429;52.498;13.480;2024-03-02T16:52:19;12.50;99.90
14682;DHT22;7429;52.498;13.480;2024-03-02T16:55:26;12.40;99.90
14682;DHT22;7429;52.498;13.480;2024-03-02T16:58:29;12.50;99.90
14682;DHT22;7429;52.498;13.480;2024-03-02T17:01:33;12.40;99.90
14682;DHT22;7429;52.498;13.480;2024-03-02T17:04:37;12.40;99.90
14682;DHT22;7429;52.498;13.480;2024-03-02T17:07:40;12.40;99.90
14682;DHT22;7429;52.498;13.480;2024-03-02T17:10:43;12.40;99.90
14682;DHT22;7429;52.498;13.480;2024-03-02T17:13:48;12.30;99.90
14682;DHT22;7429;52.498;13.480;2024-03-02T17:16:55;12.30;99.90
14682;DHT22;7429;52.498;13.480;2024-03-02T17:19:58;12.20;99.90
14682;DHT22;7429;52.498;13.480;2024-03-02T17:23:03;12.10;99.90
14682;DHT22;7429;52.498;13.480;2024-03-02T17:26:06;12.00;99.90
14682;DHT22;7429;52.498;13.480;2024-03-02T17:29:09;12.00;99.90
14682;DHT22;7429;52.498;13.480;2024-03-02T17:32:15;12.00;99.90
14682;DHT22;7429;52.498;13.480;2024-03-02T17:35:19;12.10;99.90
14682;DHT22;7429;52.498;13.480;2024-03-02T17:38:23;12.10;99.90
14682;DHT22;7429;52.498;13.480;2024-03-02T17:41:26;12.00;99.90
14682;DHT22;7429;52.498;13.480;2024-03-02T17:44:30;11.90;99.90
14682;DHT22;7429;52.498;13.480;2024-03-02T17:47:34;11.90;99.90
14682;DHT22;7429;52.498;13.480;2024-03-02T17:50:38;11.90;99.90
14682;DHT22;7429;52.498;13.480;2024-03-02T17:53:41;11.80;99.90
14682;DHT22;7429;52.498;13.480;2024-03-02T17:56:44;11.80;99.90
14682;DHT22;7429;52.498;13.480;2024-03-02T17:59:47;11.80;99.90
14682;DHT22;7429;52.498;13.480;2024-03-02T18:02:52;11.70;99.90
14682;DHT22;7429;52.498;13.480;2024-03-02T18:05:56;11.70;99.90
14682;DHT22;7429;52.498;13.480;2024-03-02T18:09:00;11.60;99.90
14682;DHT22;7429;52.498;13.480;2024-03-02T18:12:05;11.50;99.90
14682;DHT22;7429;52.498;13.480;2024-03-02T18:15:09;11.50;99.90
14682;DHT22;7429;52.498;13.480;2024-03-02T18:18:14;11.40;99.90
14682;DHT22;7429;52.498;13.480;2024-03-02T18:21:18;11.40;99.90
14682;DHT22;7429;52.498;13.480;2024-03-02T18:24:21;11.40;99.90
14682;DHT22;7429;52.498;13.480;2024-03-02T18:27:27;11.30;99.90
14682;DHT22;7429;52.498;13.480;2024-03-02T18:30:31;11.30;99.90
14682;DHT22;7429;52.498;13.480;2024-03-02T18:33:36;11.20;99.90
14682;DHT22;7429;52.498;13.480;2024-03-02T18:36:39;11.20;99.90
14682;DHT22;7429;52.498;13.480;2024-03-02T18:39:42;11.20;99.90
14682;DHT22;7429;52.498;13.480;2024-03-02T18:42:48;11.20;99.90
14682;DHT22;7429;52.498;13.480;2024-03-02T18:45:51;11.10;99.90
14682;DHT22;7429;52.498;13.480;2024-03-02T18:48:58;11.10;99.90
14682;DHT22;7429;52.498;13.480;2024-03-02T18:52:03;11.10;99.90
14682;DHT22;7429;52.498;13.480;2024-03-02T18:55:08;11.00;99.90
14682;DHT22;7429;52.498;13.480;2024-03-02T18:58:13;11.00;99.90
14682;DHT22;7429;52.498;13.480;2024-03-02T19:01:16;10.90;99.90
14682;DHT22;7429;52.498;13.480;2024-03-02T19:04:22;11.00;99.90
14682;DHT22;7429;52.498;13.480;2024-03-02T19:07:25;10.90;99.90
14682;DHT22;7429;52.498;13.480;2024-03-02T19:10:28;10.90;99.90
14682;DHT22;7429;52.498;13.480;2024-03-02T19:13:32;11.00;99.90
14682;DHT22;7429;52.498;13.480;2024-03-02T19:16:36;10.90;99.90
14682;DHT22;7429;52.498;13.480;2024-03-02T19:19:41;11.00;99.90
14682;DHT22;7429;52.498;13.480;2024-03-02T19:22:51;10.90;99.90
14682;DHT22;7429;52.498;13.480;2024-03-02T19:26:03;10.80;99.90
14682;DHT22;7429;52.498;13.480;2024-03-02T19:29:07;10.80;99.90
14682;DHT22;7429;52.498;13.480;2024-03-02T19:32:11;10.80;99.90
14682;DHT22;7429;52.498;13.480;2024-03-02T19:35:26;10.70;99.90